sensor_id;sensor_type;location;lat;lon;timestamp;pressure;altitude;pressure_sealevel;temperature;humidity
6435;BME280;3250;42.694;23.278;2022-12-11T00:01:34;92785.88;;;11.11;100.00
6435;BME280;3250;42.694;23.278;2022-12-11T00:03:59;92773.25;;;11.13;100.00
6435;BME280;3250;42.694;23.278;2022-12-11T00:06:25;92796.69;;;11.14;100.00
6435;BME280;3250;42.694;23.278;2022-12-11T00:08:52;92796.41;;;11.16;100.00
6435;BME280;3250;42.694;23.278;2022-12-11T00:11:18;92753.22;;;11.22;100.00
6435;BME280;3250;42.694;23.278;2022-12-11T00:13:44;92750.09;;;11.05;100.00
6435;BME280;3250;42.694;23.278;2022-12-11T00:16:09;92756.38;;;11.09;100.00
6435;BME280;3250;42.694;23.278;2022-12-11T00:18:35;92744.84;;;10.84;100.00
6435;BME280;3250;42.694;23.278;2022-12-11T00:21:05;92771.94;;;11.15;100.00
6435;BME280;3250;42.694;23.278;2022-12-11T00:23:34;92796.94;;;11.13;100.00
6435;BME280;3250;42.694;23.278;2022-12-11T00:25:59;92730.59;;;11.01;100.00
6435;BME280;3250;42.694;23.278;2022-12-11T00:28:25;92776.66;;;11.13;100.00
6435;BME280;3250;42.694;23.278;2022-12-11T00:30:51;92773.25;;;11.13;100.00
6435;BME280;3250;42.694;23.278;2022-12-11T00:33:16;92737.97;;;11.09;100.00
6435;BME280;3250;42.694;23.278;2022-12-11T00:35:43;92797.19;;;11.26;100.00
6435;BME280;3250;42.694;23.278;2022-12-11T00:38:14;92742.16;;;11.30;100.00
6435;BME280;3250;42.694;23.278;2022-12-11T00:40:40;92713.22;;;11.00;100.00
6435;BME280;3250;42.694;23.278;2022-12-11T00:43:06;92703.00;;;10.98;100.00
6435;BME280;3250;42.694;23.278;2022-12-11T00:45:37;92753.50;;;11.15;100.00
6435;BME280;3250;42.694;23.278;2022-12-11T00:48:04;92751.69;;;10.85;100.00
6435;BME280;3250;42.694;23.278;2022-12-11T00:50:30;92704.03;;;10.82;100.00
6435;BME280;3250;42.694;23.278;2022-12-11T00:52:55;92741.13;;;11.01;100.00
6435;BME280;3250;42.694;23.278;2022-12-11T00:55:21;92761.91;;;11.22;100.00
6435;BME280;3250;42.694;23.278;2022-12-11T00:57:46;92740.81;;;11.38;100.00
6435;BME280;3250;42.694;23.278;2022-12-11T01:00:12;92761.09;;;11.37;100.00
6435;BME280;3250;42.694;23.278;2022-12-11T01:02:38;92750.56;;;11.27;100.00
6435;BME280;3250;42.694;23.278;2022-12-11T01:05:03;92709.78;;;11.19;100.00
6435;BME280;3250;42.694;23.278;2022-12-11T01:07:29;92723.19;;;11.28;100.00
6435;BME280;3250;42.694;23.278;2022-12-11T01:09:54;92774.53;;;11.35;100.00
6435;BME280;3250;42.694;23.278;2022-12-11T01:12:38;92769.78;;;11.38;100.00
6435;BME280;3250;42.694;23.278;2022-12-11T01:15:04;92754.00;;;11.27;100.00
6435;BME280;3250;42.694;23.278;2022-12-11T01:17:30;92765.53;;;11.47;100.00
6435;BME280;3250;42.694;23.278;2022-12-11T01:19:55;92757.13;;;11.34;100.00
6435;BME280;3250;42.694;23.278;2022-12-11T01:22:21;92788.22;;;11.38;100.00
6435;BME280;3250;42.694;23.278;2022-12-11T01:24:46;92766.63;;;11.30;100.00
6435;BME280;3250;42.694;23.278;2022-12-11T01:27:12;92784.22;;;11.50;100.00
6435;BME280;3250;42.694;23.278;2022-12-11T01:29:37;92728.66;;;11.47;100.00
6435;BME280;3250;42.694;23.278;2022-12-11T01:32:03;92709.69;;;11.50;100.00
6435;BME280;3250;42.694;23.278;2022-12-11T01:34:29;92727.28;;;11.59;100.00
6435;BME280;3250;42.694;23.278;2022-12-11T01:36:54;92741.66;;;11.13;100.00
6435;BME280;3250;42.694;23.278;2022-12-11T01:39:20;92746.91;;;11.23;100.00
6435;BME280;3250;42.694;23.278;2022-12-11T01:41:45;92687.97;;;11.04;100.00
6435;BME280;3250;42.694;23.278;2022-12-11T01:46:39;92720.75;;;11.42;100.00
6435;BME280;3250;42.694;23.278;2022-12-11T01:49:08;92675.69;;;11.53;99.00
6435;BME280;3250;42.694;23.278;2022-12-11T01:51:46;92685.44;;;12.07;96.97
6435;BME280;3250;42.694;23.278;2022-12-11T01:54:14;92709.97;;;12.52;95.31
6435;BME280;3250;42.694;23.278;2022-12-11T01:56:42;92663.47;;;12.56;93.14
6435;BME280;3250;42.694;23.278;2022-12-11T01:59:09;92685.75;;;13.02;86.29
6435;BME280;3250;42.694;23.278;2022-12-11T02:01:48;92680.97;;;13.33;84.94
6435;BME280;3250;42.694;23.278;2022-12-11T02:04:16;92724.81;;;13.58;80.26
6435;BME280;3250;42.694;23.278;2022-12-11T02:06:50;92746.28;;;13.80;81.93
6435;BME280;3250;42.694;23.278;2022-12-11T02:09:18;92723.41;;;13.89;79.43
6435;BME280;3250;42.694;23.278;2022-12-11T02:20:03;92673.09;;;13.94;78.90
6435;BME280;3250;42.694;23.278;2022-12-11T02:31:16;92652.59;;;14.24;80.02
6435;BME280;3250;42.694;23.278;2022-12-11T02:33:56;92634.78;;;14.11;81.40
6435;BME280;3250;42.694;23.278;2022-12-11T02:36:24;92636.72;;;14.24;82.09
6435;BME280;3250;42.694;23.278;2022-12-11T02:38:52;92663.97;;;14.43;82.92
6435;BME280;3250;42.694;23.278;2022-12-11T02:41:20;92667.88;;;14.46;82.91
6435;BME280;3250;42.694;23.278;2022-12-11T02:43:48;92678.13;;;14.52;82.43
6435;BME280;3250;42.694;23.278;2022-12-11T02:46:16;92652.50;;;14.48;80.23
6435;BME280;3250;42.694;23.278;2022-12-11T02:48:44;92647.56;;;14.60;79.29
6435;BME280;3250;42.694;23.278;2022-12-11T02:51:13;92656.44;;;14.50;76.43
6435;BME280;3250;42.694;23.278;2022-12-11T02:53:41;92627.47;;;14.72;73.64
6435;BME280;3250;42.694;23.278;2022-12-11T02:56:21;92709.00;;;15.08;73.27
6435;BME280;3250;42.694;23.278;2022-12-11T02:58:53;92652.22;;;14.82;73.18
6435;BME280;3250;42.694;23.278;2022-12-11T03:01:19;92692.78;;;14.96;72.38
6435;BME280;3250;42.694;23.278;2022-12-11T03:03:45;92684.75;;;15.01;73.02
6435;BME280;3250;42.694;23.278;2022-12-11T03:06:13;92697.41;;;15.04;73.71
6435;BME280;3250;42.694;23.278;2022-12-11T03:08:40;92612.06;;;14.61;74.54
6435;BME280;3250;42.694;23.278;2022-12-11T03:11:10;92682.19;;;14.96;74.71
6435;BME280;3250;42.694;23.278;2022-12-11T03:13:36;92681.88;;;14.97;75.35
6435;BME280;3250;42.694;23.278;2022-12-11T03:24:22;92681.72;;;15.07;76.63
6435;BME280;3250;42.694;23.278;2022-12-11T03:26:57;92650.31;;;15.01;74.88
6435;BME280;3250;42.694;23.278;2022-12-11T03:29:30;92658.56;;;15.13;74.33
6435;BME280;3250;42.694;23.278;2022-12-11T03:32:08;92674.84;;;15.06;74.70
6435;BME280;3250;42.694;23.278;2022-12-11T03:34:41;92694.00;;;15.17;74.07
6435;BME280;3250;42.694;23.278;2022-12-11T03:37:10;92686.72;;;15.09;74.94
6435;BME280;3250;42.694;23.278;2022-12-11T03:39:40;92684.66;;;15.06;74.84
6435;BME280;3250;42.694;23.278;2022-12-11T03:42:10;92706.34;;;15.08;75.02
6435;BME280;3250;42.694;23.278;2022-12-11T03:44:36;92699.41;;;15.12;74.51
6435;BME280;3250;42.694;23.278;2022-12-11T03:47:05;92714.06;;;14.91;75.42
6435;BME280;3250;42.694;23.278;2022-12-11T03:49:36;92710.28;;;14.78;75.34
6435;BME280;3250;42.694;23.278;2022-12-11T03:52:04;92735.53;;;14.89;75.71
6435;BME280;3250;42.694;23.278;2022-12-11T03:54:30;92743.75;;;14.88;75.45
6435;BME280;3250;42.694;23.278;2022-12-11T03:56:57;92762.09;;;14.84;76.20
6435;BME280;3250;42.694;23.278;2022-12-11T03:59:24;92751.50;;;14.84;76.27
6435;BME280;3250;42.694;23.278;2022-12-11T04:01:50;92753.59;;;14.87;76.32
6435;BME280;3250;42.694;23.278;2022-12-11T04:04:15;92776.97;;;14.99;75.76
6435;BME280;3250;42.694;23.278;2022-12-11T04:06:41;92772.63;;;14.89;75.52
6435;BME280;3250;42.694;23.278;2022-12-11T04:09:06;92760.53;;;14.64;76.56
6435;BME280;3250;42.694;23.278;2022-12-11T04:11:32;92731.00;;;14.57;76.58
6435;BME280;3250;42.694;23.278;2022-12-11T04:14:06;92770.06;;;14.65;76.80
6435;BME280;3250;42.694;23.278;2022-12-11T04:16:51;92765.84;;;14.64;76.11
6435;BME280;3250;42.694;23.278;2022-12-11T04:19:17;92771.34;;;14.68;76.03
6435;BME280;3250;42.694;23.278;2022-12-11T04:22:01;92804.41;;;14.89;76.13
6435;BME280;3250;42.694;23.278;2022-12-11T04:24:47;92810.06;;;14.83;76.47
6435;BME280;3250;42.694;23.278;2022-12-11T04:27:13;92808.25;;;14.97;75.01
6435;BME280;3250;42.694;23.278;2022-12-11T04:29:38;92823.03;;;15.03;75.49
6435;BME280;3250;42.694;23.278;2022-12-11T04:32:04;92807.56;;;14.91;76.65
6435;BME280;3250;42.694;23.278;2022-12-11T04:34:29;92810.63;;;14.98;75.29
6435;BME280;3250;42.694;23.278;2022-12-11T04:36:55;92826.16;;;15.05;76.11
6435;BME280;3250;42.694;23.278;2022-12-11T04:39:20;92852.31;;;15.12;76.11
6435;BME280;3250;42.694;23.278;2022-12-11T04:41:45;92825.13;;;14.87;74.07
6435;BME280;3250;42.694;23.278;2022-12-11T04:44:11;92837.53;;;15.05;73.38
6435;BME280;3250;42.694;23.278;2022-12-11T04:46:36;92813.00;;;15.00;71.18
6435;BME280;3250;42.694;23.278;2022-12-11T04:49:02;92825.56;;;15.27;70.68
6435;BME280;3250;42.694;23.278;2022-12-11T04:51:27;92854.16;;;15.30;68.38
6435;BME280;3250;42.694;23.278;2022-12-11T04:53:53;92853.50;;;15.38;68.48
6435;BME280;3250;42.694;23.278;2022-12-11T04:56:20;92852.56;;;15.47;68.38
6435;BME280;3250;42.694;23.278;2022-12-11T04:58:46;92832.31;;;15.19;69.55
6435;BME280;3250;42.694;23.278;2022-12-11T05:01:18;92844.47;;;15.39;68.37
6435;BME280;3250;42.694;23.278;2022-12-11T05:03:44;92823.13;;;15.30;69.29
6435;BME280;3250;42.694;23.278;2022-12-11T05:06:09;92828.47;;;15.44;67.35
6435;BME280;3250;42.694;23.278;2022-12-11T05:08:37;92840.91;;;15.30;67.86
6435;BME280;3250;42.694;23.278;2022-12-11T05:11:06;92836.00;;;15.37;69.03
6435;BME280;3250;42.694;23.278;2022-12-11T05:13:32;92828.13;;;15.32;69.80
6435;BME280;3250;42.694;23.278;2022-12-11T05:15:58;92796.25;;;15.04;69.79
6435;BME280;3250;42.694;23.278;2022-12-11T05:18:24;92824.69;;;15.31;70.46
6435;BME280;3250;42.694;23.278;2022-12-11T05:21:01;92825.19;;;15.33;70.78
6435;BME280;3250;42.694;23.278;2022-12-11T05:23:28;92818.81;;;15.34;71.34
6435;BME280;3250;42.694;23.278;2022-12-11T05:25:55;92800.78;;;15.18;70.95
6435;BME280;3250;42.694;23.278;2022-12-11T05:28:22;92822.88;;;15.13;72.20
6435;BME280;3250;42.694;23.278;2022-12-11T05:30:57;92813.28;;;14.98;72.43
6435;BME280;3250;42.694;23.278;2022-12-11T05:33:23;92807.69;;;15.00;72.78
6435;BME280;3250;42.694;23.278;2022-12-11T05:35:48;92806.53;;;15.06;71.61
6435;BME280;3250;42.694;23.278;2022-12-11T05:38:14;92826.47;;;15.03;72.53
6435;BME280;3250;42.694;23.278;2022-12-11T05:40:40;92822.94;;;15.08;72.28
6435;BME280;3250;42.694;23.278;2022-12-11T05:43:05;92821.44;;;15.02;72.75
6435;BME280;3250;42.694;23.278;2022-12-11T05:45:30;92809.78;;;15.03;73.31
6435;BME280;3250;42.694;23.278;2022-12-11T05:47:56;92822.16;;;15.07;74.06
6435;BME280;3250;42.694;23.278;2022-12-11T05:50:21;92824.75;;;14.94;74.85
6435;BME280;3250;42.694;23.278;2022-12-11T05:52:46;92787.66;;;14.75;75.08
6435;BME280;3250;42.694;23.278;2022-12-11T05:55:12;92813.69;;;15.05;72.76
6435;BME280;3250;42.694;23.278;2022-12-11T05:57:38;92824.81;;;15.07;73.33
6435;BME280;3250;42.694;23.278;2022-12-11T06:00:05;92804.63;;;15.12;72.95
6435;BME280;3250;42.694;23.278;2022-12-11T06:02:33;92799.59;;;15.10;74.01
6435;BME280;3250;42.694;23.278;2022-12-11T06:04:59;92798.09;;;15.04;72.92
6435;BME280;3250;42.694;23.278;2022-12-11T06:07:24;92798.53;;;15.11;74.07
6435;BME280;3250;42.694;23.278;2022-12-11T06:09:49;92801.97;;;15.12;73.51
6435;BME280;3250;42.694;23.278;2022-12-11T06:12:15;92815.00;;;15.08;74.10
6435;BME280;3250;42.694;23.278;2022-12-11T06:14:40;92801.59;;;15.18;73.59
6435;BME280;3250;42.694;23.278;2022-12-11T06:17:06;92819.72;;;15.11;73.22
6435;BME280;3250;42.694;23.278;2022-12-11T06:19:31;92804.06;;;14.96;73.01
6435;BME280;3250;42.694;23.278;2022-12-11T06:21:57;92820.13;;;15.18;70.27
6435;BME280;3250;42.694;23.278;2022-12-11T06:24:22;92826.91;;;15.24;68.61
6435;BME280;3250;42.694;23.278;2022-12-11T06:26:47;92800.28;;;15.16;68.50
6435;BME280;3250;42.694;23.278;2022-12-11T06:29:13;92838.84;;;15.40;70.15
6435;BME280;3250;42.694;23.278;2022-12-11T06:31:38;92829.28;;;15.26;71.18
6435;BME280;3250;42.694;23.278;2022-12-11T06:34:04;92815.34;;;15.53;72.42
6435;BME280;3250;42.694;23.278;2022-12-11T06:36:30;92817.34;;;15.28;69.13
6435;BME280;3250;42.694;23.278;2022-12-11T06:38:55;92844.44;;;15.58;69.36
6435;BME280;3250;42.694;23.278;2022-12-11T06:41:20;92824.06;;;15.72;66.80
6435;BME280;3250;42.694;23.278;2022-12-11T06:43:46;92850.88;;;15.84;65.56
6435;BME280;3250;42.694;23.278;2022-12-11T06:46:13;92876.28;;;15.90;66.09
6435;BME280;3250;42.694;23.278;2022-12-11T06:48:40;92881.97;;;15.97;65.79
6435;BME280;3250;42.694;23.278;2022-12-11T06:51:07;92833.91;;;15.99;65.83
6435;BME280;3250;42.694;23.278;2022-12-11T06:53:33;92867.69;;;15.93;66.94
6435;BME280;3250;42.694;23.278;2022-12-11T06:56:17;92827.63;;;15.95;69.05
6435;BME280;3250;42.694;23.278;2022-12-11T06:58:43;92852.69;;;15.89;69.60
6435;BME280;3250;42.694;23.278;2022-12-11T07:03:44;92868.75;;;15.78;66.90
6435;BME280;3250;42.694;23.278;2022-12-11T07:06:09;92858.66;;;15.80;67.36
6435;BME280;3250;42.694;23.278;2022-12-11T07:08:35;92865.22;;;15.83;67.29
6435;BME280;3250;42.694;23.278;2022-12-11T07:11:08;92873.28;;;15.78;68.41
6435;BME280;3250;42.694;23.278;2022-12-11T07:13:34;92882.25;;;15.82;67.18
6435;BME280;3250;42.694;23.278;2022-12-11T07:16:01;92876.94;;;15.82;68.92
6435;BME280;3250;42.694;23.278;2022-12-11T07:18:29;92883.59;;;15.79;70.22
6435;BME280;3250;42.694;23.278;2022-12-11T07:20:57;92859.50;;;15.76;71.13
6435;BME280;3250;42.694;23.278;2022-12-11T07:23:23;92865.09;;;15.74;70.93
6435;BME280;3250;42.694;23.278;2022-12-11T07:25:48;92873.00;;;15.79;71.60
6435;BME280;3250;42.694;23.278;2022-12-11T07:28:14;92883.69;;;15.74;72.42
6435;BME280;3250;42.694;23.278;2022-12-11T07:30:39;92872.09;;;15.70;73.29
6435;BME280;3250;42.694;23.278;2022-12-11T07:33:04;92877.50;;;15.65;73.24
6435;BME280;3250;42.694;23.278;2022-12-11T07:35:33;92878.25;;;15.66;74.69
6435;BME280;3250;42.694;23.278;2022-12-11T07:37:58;92893.88;;;15.67;74.54
6435;BME280;3250;42.694;23.278;2022-12-11T07:40:24;92890.25;;;15.63;75.52
6435;BME280;3250;42.694;23.278;2022-12-11T07:42:49;92888.78;;;15.52;76.17
6435;BME280;3250;42.694;23.278;2022-12-11T07:45:15;92860.50;;;15.47;76.08
6435;BME280;3250;42.694;23.278;2022-12-11T07:47:40;92913.59;;;15.42;71.99
6435;BME280;3250;42.694;23.278;2022-12-11T07:50:05;92874.19;;;15.36;68.48
6435;BME280;3250;42.694;23.278;2022-12-11T07:52:32;92915.31;;;15.52;69.63
6435;BME280;3250;42.694;23.278;2022-12-11T07:54:58;92909.59;;;15.64;70.47
6435;BME280;3250;42.694;23.278;2022-12-11T07:57:23;92922.50;;;15.84;66.41
6435;BME280;3250;42.694;23.278;2022-12-11T07:59:49;92881.75;;;15.94;67.20
6435;BME280;3250;42.694;23.278;2022-12-11T08:02:15;92913.41;;;15.90;67.72
6435;BME280;3250;42.694;23.278;2022-12-11T08:04:40;92961.47;;;15.89;71.64
6435;BME280;3250;42.694;23.278;2022-12-11T08:07:06;92925.97;;;15.84;65.13
6435;BME280;3250;42.694;23.278;2022-12-11T08:09:31;92918.72;;;15.90;70.15
6435;BME280;3250;42.694;23.278;2022-12-11T08:11:56;92873.41;;;15.87;72.47
6435;BME280;3250;42.694;23.278;2022-12-11T08:14:22;92897.19;;;15.92;68.15
6435;BME280;3250;42.694;23.278;2022-12-11T08:16:47;92906.59;;;15.84;68.52
6435;BME280;3250;42.694;23.278;2022-12-11T08:19:13;92917.66;;;15.91;70.05
6435;BME280;3250;42.694;23.278;2022-12-11T08:21:39;92948.09;;;15.94;71.83
6435;BME280;3250;42.694;23.278;2022-12-11T08:24:05;92940.63;;;15.82;70.19
6435;BME280;3250;42.694;23.278;2022-12-11T08:26:30;92931.78;;;15.87;70.05
6435;BME280;3250;42.694;23.278;2022-12-11T08:28:57;92922.38;;;15.75;68.17
6435;BME280;3250;42.694;23.278;2022-12-11T08:31:24;92947.97;;;15.85;67.98
6435;BME280;3250;42.694;23.278;2022-12-11T08:33:50;92943.69;;;15.89;69.08
6435;BME280;3250;42.694;23.278;2022-12-11T08:36:18;92944.59;;;15.98;69.11
6435;BME280;3250;42.694;23.278;2022-12-11T08:38:44;92919.63;;;15.99;71.48
6435;BME280;3250;42.694;23.278;2022-12-11T08:41:18;92922.75;;;15.88;71.91
6435;BME280;3250;42.694;23.278;2022-12-11T08:43:44;92917.09;;;15.75;73.54
6435;BME280;3250;42.694;23.278;2022-12-11T08:46:11;92920.19;;;15.82;75.69
6435;BME280;3250;42.694;23.278;2022-12-11T08:48:38;92936.00;;;15.88;76.28
6435;BME280;3250;42.694;23.278;2022-12-11T08:51:06;92932.66;;;15.82;76.42
6435;BME280;3250;42.694;23.278;2022-12-11T08:53:32;92927.22;;;15.73;79.12
6435;BME280;3250;42.694;23.278;2022-12-11T08:56:02;92928.97;;;15.64;81.50
6435;BME280;3250;42.694;23.278;2022-12-11T08:58:28;92915.09;;;15.48;82.31
6435;BME280;3250;42.694;23.278;2022-12-11T09:00:54;92923.34;;;15.47;83.49
6435;BME280;3250;42.694;23.278;2022-12-11T09:03:21;92900.22;;;15.15;85.46
6435;BME280;3250;42.694;23.278;2022-12-11T09:05:46;92893.59;;;15.31;84.85
6435;BME280;3250;42.694;23.278;2022-12-11T09:08:11;92894.13;;;15.33;84.27
6435;BME280;3250;42.694;23.278;2022-12-11T09:10:37;92874.06;;;15.78;82.52
6435;BME280;3250;42.694;23.278;2022-12-11T09:13:02;92889.38;;;16.55;80.84
6435;BME280;3250;42.694;23.278;2022-12-11T09:15:29;92906.00;;;17.02;77.15
6435;BME280;3250;42.694;23.278;2022-12-11T09:17:56;92910.16;;;17.30;71.51
6435;BME280;3250;42.694;23.278;2022-12-11T09:20:21;92858.19;;;16.88;67.79
6435;BME280;3250;42.694;23.278;2022-12-11T09:22:47;92899.91;;;17.37;72.10
6435;BME280;3250;42.694;23.278;2022-12-11T09:25:12;92905.97;;;17.51;66.22
6435;BME280;3250;42.694;23.278;2022-12-11T09:27:38;92891.72;;;17.69;65.77
6435;BME280;3250;42.694;23.278;2022-12-11T09:30:04;92904.59;;;17.76;65.01
6435;BME280;3250;42.694;23.278;2022-12-11T09:32:29;92876.81;;;17.91;65.95
6435;BME280;3250;42.694;23.278;2022-12-11T09:34:55;92905.03;;;17.92;64.57
6435;BME280;3250;42.694;23.278;2022-12-11T09:37:20;92903.09;;;18.06;65.28
6435;BME280;3250;42.694;23.278;2022-12-11T09:39:46;92891.75;;;18.00;65.97
6435;BME280;3250;42.694;23.278;2022-12-11T09:42:29;92896.28;;;17.69;67.67
6435;BME280;3250;42.694;23.278;2022-12-11T09:44:59;92870.28;;;17.52;68.58
6435;BME280;3250;42.694;23.278;2022-12-11T09:50:09;92871.88;;;17.76;66.75
6435;BME280;3250;42.694;23.278;2022-12-11T09:55:51;92886.13;;;18.02;67.97
6435;BME280;3250;42.694;23.278;2022-12-11T10:07:19;92882.13;;;18.53;67.41
6435;BME280;3250;42.694;23.278;2022-12-11T10:15:38;92877.19;;;17.98;67.08
6435;BME280;3250;42.694;23.278;2022-12-11T10:18:11;92876.72;;;17.73;67.42
6435;BME280;3250;42.694;23.278;2022-12-11T10:20:38;92893.25;;;17.62;66.44
6435;BME280;3250;42.694;23.278;2022-12-11T10:23:15;92889.44;;;17.18;67.53
6435;BME280;3250;42.694;23.278;2022-12-11T10:25:52;92874.72;;;16.85;69.42
6435;BME280;3250;42.694;23.278;2022-12-11T10:28:20;92878.75;;;16.82;72.21
6435;BME280;3250;42.694;23.278;2022-12-11T10:31:01;92887.84;;;16.68;71.95
6435;BME280;3250;42.694;23.278;2022-12-11T10:33:36;92888.13;;;16.66;72.96
6435;BME280;3250;42.694;23.278;2022-12-11T10:36:07;92878.38;;;16.34;76.03
6435;BME280;3250;42.694;23.278;2022-12-11T10:38:38;92870.91;;;16.22;77.97
6435;BME280;3250;42.694;23.278;2022-12-11T10:41:10;92860.25;;;16.36;76.57
6435;BME280;3250;42.694;23.278;2022-12-11T10:43:44;92871.00;;;16.58;76.84
6435;BME280;3250;42.694;23.278;2022-12-11T10:49:23;92866.66;;;16.90;75.87
6435;BME280;3250;42.694;23.278;2022-12-11T10:51:51;92848.19;;;17.07;76.10
6435;BME280;3250;42.694;23.278;2022-12-11T10:54:39;92836.97;;;17.32;74.25
6435;BME280;3250;42.694;23.278;2022-12-11T10:57:07;92805.00;;;17.24;73.37
6435;BME280;3250;42.694;23.278;2022-12-11T11:02:03;92845.63;;;17.83;71.53
6435;BME280;3250;42.694;23.278;2022-12-11T11:04:32;92834.56;;;17.67;70.12
6435;BME280;3250;42.694;23.278;2022-12-11T11:07:11;92821.09;;;17.63;69.87
6435;BME280;3250;42.694;23.278;2022-12-11T11:09:37;92838.66;;;17.73;70.77
6435;BME280;3250;42.694;23.278;2022-12-11T11:12:15;92845.91;;;17.59;70.69
6435;BME280;3250;42.694;23.278;2022-12-11T11:14:41;92846.78;;;17.46;71.62
6435;BME280;3250;42.694;23.278;2022-12-11T11:17:13;92819.00;;;17.16;72.78
6435;BME280;3250;42.694;23.278;2022-12-11T11:19:39;92836.41;;;17.22;73.65
6435;BME280;3250;42.694;23.278;2022-12-11T11:22:13;92835.50;;;17.04;74.13
6435;BME280;3250;42.694;23.278;2022-12-11T11:24:59;92782.16;;;16.65;74.86
6435;BME280;3250;42.694;23.278;2022-12-11T11:27:32;92806.81;;;16.79;75.02
6435;BME280;3250;42.694;23.278;2022-12-11T11:30:02;92833.81;;;16.58;74.60
6435;BME280;3250;42.694;23.278;2022-12-11T11:32:33;92819.66;;;16.63;75.24
6435;BME280;3250;42.694;23.278;2022-12-11T11:35:14;92832.53;;;16.70;74.77
6435;BME280;3250;42.694;23.278;2022-12-11T11:37:45;92830.28;;;16.63;74.88
6435;BME280;3250;42.694;23.278;2022-12-11T11:40:39;92831.06;;;16.64;75.43
6435;BME280;3250;42.694;23.278;2022-12-11T11:49:05;92827.03;;;16.66;73.55
6435;BME280;3250;42.694;23.278;2022-12-11T11:51:42;92818.94;;;16.71;74.16
6435;BME280;3250;42.694;23.278;2022-12-11T11:54:33;92814.50;;;16.80;74.13
6435;BME280;3250;42.694;23.278;2022-12-11T11:57:04;92800.97;;;16.68;73.88
6435;BME280;3250;42.694;23.278;2022-12-11T11:59:48;92803.13;;;16.66;74.06
6435;BME280;3250;42.694;23.278;2022-12-11T12:02:17;92808.53;;;16.61;73.79
6435;BME280;3250;42.694;23.278;2022-12-11T12:04:44;92805.88;;;16.61;74.53
6435;BME280;3250;42.694;23.278;2022-12-11T12:07:28;92808.53;;;16.47;75.31
6435;BME280;3250;42.694;23.278;2022-12-11T12:17:58;92791.25;;;15.81;73.72
6435;BME280;3250;42.694;23.278;2022-12-11T12:26:38;92835.84;;;14.77;75.54
6435;BME280;3250;42.694;23.278;2022-12-11T12:31:44;92842.63;;;13.69;78.21
6435;BME280;3250;42.694;23.278;2022-12-11T12:45:47;92873.75;;;11.96;82.12
6435;BME280;3250;42.694;23.278;2022-12-11T12:48:16;92845.34;;;11.62;82.45
6435;BME280;3250;42.694;23.278;2022-12-11T12:50:47;92866.69;;;11.35;83.25
6435;BME280;3250;42.694;23.278;2022-12-11T12:53:19;92876.44;;;11.25;84.81
6435;BME280;3250;42.694;23.278;2022-12-11T12:55:48;92886.97;;;11.00;85.79
6435;BME280;3250;42.694;23.278;2022-12-11T13:00:52;92909.25;;;10.56;84.60
6435;BME280;3250;42.694;23.278;2022-12-11T13:06:05;92909.78;;;10.01;87.80
6435;BME280;3250;42.694;23.278;2022-12-11T13:08:48;92911.81;;;9.89;88.24
6435;BME280;3250;42.694;23.278;2022-12-11T13:11:17;92932.16;;;9.67;88.69
6435;BME280;3250;42.694;23.278;2022-12-11T13:13:46;92925.69;;;9.42;89.67
6435;BME280;3250;42.694;23.278;2022-12-11T13:18:40;92936.78;;;8.91;90.44
6435;BME280;3250;42.694;23.278;2022-12-11T13:23:50;92941.06;;;8.75;90.47
6435;BME280;3250;42.694;23.278;2022-12-11T13:26:27;92971.59;;;8.81;91.06
6435;BME280;3250;42.694;23.278;2022-12-11T13:28:53;92978.50;;;8.92;91.18
6435;BME280;3250;42.694;23.278;2022-12-11T13:33:46;92953.03;;;8.66;89.69
6435;BME280;3250;42.694;23.278;2022-12-11T13:38:52;92998.63;;;8.38;90.25
6435;BME280;3250;42.694;23.278;2022-12-11T13:41:19;92982.75;;;8.11;90.86
6435;BME280;3250;42.694;23.278;2022-12-11T13:43:47;92975.59;;;7.85;92.01
6435;BME280;3250;42.694;23.278;2022-12-11T13:46:18;92995.75;;;7.84;92.46
6435;BME280;3250;42.694;23.278;2022-12-11T13:48:47;93018.19;;;7.64;91.98
6435;BME280;3250;42.694;23.278;2022-12-11T13:51:23;93011.38;;;7.46;93.13
6435;BME280;3250;42.694;23.278;2022-12-11T13:54:04;93010.72;;;7.39;93.10
6435;BME280;3250;42.694;23.278;2022-12-11T13:56:30;93039.19;;;7.35;93.08
6435;BME280;3250;42.694;23.278;2022-12-11T13:58:55;93043.56;;;7.46;93.57
6435;BME280;3250;42.694;23.278;2022-12-11T14:01:27;93035.03;;;7.51;93.29
6435;BME280;3250;42.694;23.278;2022-12-11T14:04:08;93047.19;;;7.29;93.05
6435;BME280;3250;42.694;23.278;2022-12-11T14:06:37;93038.00;;;7.26;92.59
6435;BME280;3250;42.694;23.278;2022-12-11T14:09:04;93057.59;;;7.40;92.61
6435;BME280;3250;42.694;23.278;2022-12-11T14:11:36;93047.00;;;7.18;92.50
6435;BME280;3250;42.694;23.278;2022-12-11T14:14:06;93061.63;;;7.31;92.70
6435;BME280;3250;42.694;23.278;2022-12-11T14:16:32;93063.22;;;7.32;91.82
6435;BME280;3250;42.694;23.278;2022-12-11T14:19:05;93080.06;;;7.53;91.89
6435;BME280;3250;42.694;23.278;2022-12-11T14:21:34;93082.22;;;7.56;91.06
6435;BME280;3250;42.694;23.278;2022-12-11T14:24:01;93101.38;;;7.73;90.34
6435;BME280;3250;42.694;23.278;2022-12-11T14:26:35;93114.78;;;7.60;90.74
6435;BME280;3250;42.694;23.278;2022-12-11T14:29:03;93112.59;;;7.57;90.58
6435;BME280;3250;42.694;23.278;2022-12-11T14:31:33;93111.66;;;7.63;91.03
6435;BME280;3250;42.694;23.278;2022-12-11T14:34:06;93080.84;;;7.53;90.25
6435;BME280;3250;42.694;23.278;2022-12-11T14:36:34;93102.94;;;7.57;89.92
6435;BME280;3250;42.694;23.278;2022-12-11T14:39:23;93124.69;;;7.75;88.57
6435;BME280;3250;42.694;23.278;2022-12-11T14:44:31;93133.47;;;7.52;88.34
6435;BME280;3250;42.694;23.278;2022-12-11T14:47:13;93151.13;;;7.45;89.14
6435;BME280;3250;42.694;23.278;2022-12-11T14:49:52;93152.44;;;7.31;90.04
6435;BME280;3250;42.694;23.278;2022-12-11T14:52:32;93157.63;;;7.42;91.09
6435;BME280;3250;42.694;23.278;2022-12-11T14:57:35;93138.91;;;7.34;90.75
6435;BME280;3250;42.694;23.278;2022-12-11T15:00:04;93140.47;;;7.35;89.98
6435;BME280;3250;42.694;23.278;2022-12-11T15:02:32;93162.53;;;7.39;89.61
6435;BME280;3250;42.694;23.278;2022-12-11T15:05:21;93178.16;;;7.34;89.07
6435;BME280;3250;42.694;23.278;2022-12-11T15:10:39;93154.56;;;7.05;89.58
6435;BME280;3250;42.694;23.278;2022-12-11T15:13:06;93171.28;;;6.93;88.99